createdAt,value
2024-04-13T00:04:06.526Z,0.67
2024-04-13T00:04:45.716Z,0.72
2024-04-13T00:05:45.622Z,1.07
2024-04-13T00:06:45.882Z,1.76
2024-04-13T00:07:45.626Z,2.91
2024-04-13T00:08:45.649Z,4.56
2024-04-13T00:09:45.624Z,4.09
2024-04-13T00:10:45.677Z,2.93
2024-04-13T00:11:45.646Z,2.32
2024-04-13T00:12:45.624Z,1.85
2024-04-13T00:13:45.618Z,1.58
2024-04-13T00:14:45.633Z,1.32
2024-04-13T00:15:45.624Z,1.17
2024-04-13T00:16:45.681Z,1.08
2024-04-13T00:17:45.663Z,0.97
2024-04-13T00:18:45.704Z,0.90
2024-04-13T00:19:45.686Z,0.84
2024-04-13T00:20:45.634Z,0.77
2024-04-13T00:21:45.630Z,0.75
2024-04-13T00:22:45.634Z,0.72
2024-04-13T00:23:45.656Z,0.70
2024-04-13T00:24:45.644Z,0.66
2024-04-13T00:25:45.641Z,0.64
2024-04-13T00:26:45.650Z,0.62
2024-04-13T00:27:45.647Z,0.59
2024-04-13T00:28:45.649Z,0.58
2024-04-13T00:29:45.644Z,0.58
2024-04-13T00:30:45.646Z,0.55
2024-04-13T00:31:45.676Z,0.56
2024-04-13T00:32:45.658Z,0.54
2024-04-13T00:33:45.654Z,0.53
2024-04-13T00:34:45.661Z,0.52
2024-04-13T00:35:45.693Z,0.50
2024-04-13T00:36:45.697Z,0.52
2024-04-13T00:37:45.701Z,0.50
2024-04-13T00:38:45.740Z,0.50
2024-04-13T00:39:45.798Z,0.50
2024-04-13T00:40:45.811Z,0.51
2024-04-13T00:41:45.839Z,0.52
2024-04-13T00:42:45.901Z,0.50
2024-04-13T00:43:45.937Z,0.51
2024-04-13T00:44:45.983Z,0.50
2024-04-13T00:45:46.001Z,0.51
2024-04-13T00:46:46.030Z,0.50
2024-04-13T00:47:46.080Z,0.52
2024-04-13T00:48:46.233Z,0.51
2024-04-13T00:49:46.159Z,0.52
2024-04-13T00:50:46.205Z,0.52
2024-04-13T00:51:46.247Z,0.51
2024-04-13T00:52:46.256Z,0.51
2024-04-13T00:53:46.284Z,0.50
2024-04-13T00:54:46.313Z,0.51
2024-04-13T00:55:46.354Z,0.50
2024-04-13T00:56:46.375Z,0.51
2024-04-13T00:57:46.404Z,0.51
2024-04-13T00:58:46.411Z,0.51
2024-04-13T00:59:46.471Z,0.52
2024-04-13T01:00:46.547Z,0.52
2024-04-13T01:01:46.634Z,0.52
2024-04-13T01:02:46.669Z,0.51
2024-04-13T01:03:46.907Z,0.51
2024-04-13T01:04:46.813Z,0.50
2024-04-13T01:05:46.874Z,0.51
2024-04-13T01:06:46.930Z,0.52
2024-04-13T01:07:46.954Z,0.51
2024-04-13T01:08:46.976Z,0.51
2024-04-13T01:09:46.959Z,0.50
2024-04-13T01:10:46.997Z,0.50
2024-04-13T01:11:47.038Z,0.51
2024-04-13T01:12:47.012Z,0.51
2024-04-13T01:13:47.038Z,0.51
2024-04-13T01:14:47.030Z,0.50
2024-04-13T01:15:47.059Z,0.51
2024-04-13T01:16:47.057Z,0.50
2024-04-13T01:17:47.172Z,0.51
2024-04-13T01:18:47.235Z,0.51
2024-04-13T01:19:47.151Z,0.52
2024-04-13T01:20:47.211Z,0.51
2024-04-13T01:21:47.207Z,0.51
2024-04-13T01:22:47.210Z,0.52
2024-04-13T01:23:47.240Z,0.50
2024-04-13T01:24:47.229Z,0.51
2024-04-13T01:25:47.250Z,0.52
2024-04-13T01:26:47.250Z,0.51
2024-04-13T01:27:47.270Z,0.51
2024-04-13T01:28:47.277Z,0.51
2024-04-13T01:29:47.324Z,0.50
2024-04-13T01:30:47.341Z,0.51
2024-04-13T01:31:47.331Z,0.51
2024-04-13T01:32:47.500Z,0.51
2024-04-13T01:33:47.489Z,0.51
2024-04-13T01:34:47.416Z,0.52
2024-04-13T01:35:47.433Z,0.51
2024-04-13T01:36:47.455Z,0.50
2024-04-13T01:37:47.474Z,0.51
2024-04-13T01:38:47.512Z,0.52
2024-04-13T01:39:47.577Z,0.51
2024-04-13T01:40:47.526Z,0.51
2024-04-13T01:41:47.545Z,0.52
2024-04-13T01:42:47.539Z,0.51
2024-04-13T01:43:47.548Z,0.51
2024-04-13T01:44:47.560Z,0.51
2024-04-13T01:45:47.585Z,0.51
2024-04-13T01:46:47.569Z,0.50
2024-04-13T01:47:47.770Z,0.50
2024-04-13T01:48:47.603Z,0.53
2024-04-13T01:49:47.604Z,0.52
2024-04-13T01:50:47.638Z,0.51
2024-04-13T01:51:47.622Z,0.52
2024-04-13T01:52:47.636Z,0.52
2024-04-13T01:53:47.643Z,0.52
2024-04-13T01:54:47.643Z,0.51
2024-04-13T01:55:47.673Z,0.51
2024-04-13T01:56:47.654Z,0.51
2024-04-13T01:57:47.665Z,0.52
2024-04-13T01:58:47.666Z,0.51
2024-04-13T01:59:47.673Z,0.51
2024-04-13T02:00:47.874Z,0.51
2024-04-13T02:01:47.782Z,0.52
2024-04-13T02:02:47.824Z,0.51
2024-04-13T02:03:47.877Z,0.51
2024-04-13T02:04:47.851Z,0.50
2024-04-13T02:05:47.876Z,0.51
2024-04-13T02:06:47.914Z,0.50
2024-04-13T02:07:48.008Z,0.51
2024-04-13T02:08:47.998Z,0.51
2024-04-13T02:09:47.970Z,0.51
2024-04-13T02:10:47.995Z,0.51
2024-04-13T02:11:48.074Z,0.51
2024-04-13T02:12:47.987Z,0.51
2024-04-13T02:13:48.018Z,0.50
2024-04-13T02:14:48.029Z,0.51
2024-04-13T02:15:48.053Z,0.51
2024-04-13T02:16:48.029Z,0.52
2024-04-13T02:17:48.093Z,0.50
2024-04-13T02:18:48.166Z,0.52
2024-04-13T02:19:48.066Z,0.52
2024-04-13T02:20:48.086Z,0.51
2024-04-13T02:21:48.103Z,0.51
2024-04-13T02:22:48.142Z,0.52
2024-04-13T02:23:48.141Z,0.52
2024-04-13T02:24:48.157Z,0.51
2024-04-13T02:25:48.191Z,0.52
2024-04-13T02:26:48.218Z,0.51
2024-04-13T02:27:48.222Z,0.52
2024-04-13T02:28:48.215Z,0.51
2024-04-13T02:29:48.223Z,0.51
2024-04-13T02:30:48.241Z,0.53
2024-04-13T02:31:48.262Z,0.52
2024-04-13T02:32:48.346Z,0.51
2024-04-13T02:33:48.375Z,0.52
2024-04-13T02:34:48.390Z,0.52
2024-04-13T02:35:48.403Z,0.53
2024-04-13T02:36:48.519Z,0.52
2024-04-13T02:37:48.430Z,0.52
2024-04-13T02:38:48.538Z,0.51
2024-04-13T02:39:48.569Z,0.51
2024-04-13T02:40:48.591Z,0.52
2024-04-13T02:41:48.639Z,0.51
2024-04-13T02:42:48.700Z,0.52
2024-04-13T02:43:48.782Z,0.50
2024-04-13T02:44:48.767Z,0.51
2024-04-13T02:45:48.749Z,0.51
2024-04-13T02:46:48.791Z,0.52
2024-04-13T02:47:48.886Z,0.52
2024-04-13T02:48:48.836Z,0.52
2024-04-13T02:49:48.809Z,0.52
2024-04-13T02:50:48.805Z,0.53
2024-04-13T02:51:48.813Z,0.51
2024-04-13T02:52:48.825Z,0.50
2024-04-13T02:53:48.833Z,0.52
2024-04-13T02:54:48.870Z,0.52
2024-04-13T02:55:48.864Z,0.51
2024-04-13T02:56:48.868Z,0.51
2024-04-13T02:57:48.895Z,0.51
2024-04-13T02:58:48.909Z,0.51
2024-04-13T02:59:48.935Z,0.50
2024-04-13T03:00:48.976Z,0.52
2024-04-13T03:01:48.912Z,0.52
2024-04-13T03:02:49.003Z,0.51
2024-04-13T03:03:49.160Z,0.52
2024-04-13T03:04:49.041Z,0.51
2024-04-13T03:05:49.067Z,0.52
2024-04-13T03:06:49.113Z,0.51
2024-04-13T03:07:49.091Z,0.51
2024-04-13T03:08:49.105Z,0.50
2024-04-13T03:09:49.116Z,0.51
2024-04-13T03:10:49.126Z,0.52
2024-04-13T03:11:49.138Z,0.51
2024-04-13T03:12:49.159Z,0.51
2024-04-13T03:13:49.162Z,0.51
2024-04-13T03:14:49.188Z,0.51
2024-04-13T03:15:49.189Z,0.52
2024-04-13T03:16:49.257Z,0.52
2024-04-13T03:17:49.250Z,0.50
2024-04-13T03:18:49.297Z,0.51
2024-04-13T03:19:49.263Z,0.52
2024-04-13T03:20:49.256Z,0.50
2024-04-13T03:21:49.345Z,0.51
2024-04-13T03:22:49.294Z,0.51
2024-04-13T03:23:49.315Z,0.51
2024-04-13T03:24:49.327Z,0.52
2024-04-13T03:25:49.345Z,0.50
2024-04-13T03:26:49.374Z,0.52
2024-04-13T03:27:49.399Z,0.52
2024-04-13T03:28:49.404Z,0.52
2024-04-13T03:29:49.458Z,0.50
2024-04-13T03:30:49.432Z,0.51
2024-04-13T03:31:49.503Z,0.50
2024-04-13T03:32:49.585Z,0.52
2024-04-13T03:33:49.588Z,0.51
2024-04-13T03:34:49.633Z,0.52
2024-04-13T03:35:49.609Z,0.51
2024-04-13T03:36:49.703Z,0.51
2024-04-13T03:37:49.636Z,0.52
2024-04-13T03:38:49.662Z,0.51
2024-04-13T03:39:49.670Z,0.51
2024-04-13T03:40:49.672Z,0.51
2024-04-13T03:41:49.707Z,0.52
2024-04-13T03:42:49.702Z,0.52
2024-04-13T03:43:49.716Z,0.52
2024-04-13T03:44:49.722Z,0.52
2024-04-13T03:45:49.725Z,0.52
2024-04-13T03:46:49.734Z,0.52
2024-04-13T03:47:49.806Z,0.52
2024-04-13T03:48:49.924Z,0.51
2024-04-13T03:49:49.792Z,0.51
2024-04-13T03:50:49.805Z,0.51
2024-04-13T03:51:49.830Z,0.52
2024-04-13T03:52:49.874Z,0.52
2024-04-13T03:53:49.862Z,0.52
2024-04-13T03:54:49.885Z,0.52
2024-04-13T03:55:49.901Z,0.52
2024-04-13T03:56:49.918Z,0.51
2024-04-13T03:57:49.947Z,0.51
2024-04-13T03:58:49.945Z,0.51
2024-04-13T03:59:49.954Z,0.51
2024-04-13T04:00:50.181Z,0.51
2024-04-13T04:01:50.043Z,0.52
2024-04-13T04:02:50.006Z,0.50
2024-04-13T04:03:50.126Z,0.51
2024-04-13T04:04:50.055Z,0.52
2024-04-13T04:05:50.060Z,0.51
2024-04-13T04:06:50.092Z,0.51
2024-04-13T04:07:50.088Z,0.50
2024-04-13T04:08:50.097Z,0.52
2024-04-13T04:09:50.101Z,0.50
2024-04-13T04:10:50.121Z,0.52
2024-04-13T04:11:50.148Z,0.51
2024-04-13T04:12:50.144Z,0.50
2024-04-13T04:13:50.156Z,0.51
2024-04-13T04:14:50.177Z,0.51
2024-04-13T04:15:50.201Z,0.50
2024-04-13T04:16:50.210Z,0.51
2024-04-13T04:17:50.256Z,0.51
2024-04-13T04:18:50.286Z,0.51
2024-04-13T04:19:50.254Z,0.51
2024-04-13T04:20:50.248Z,0.51
2024-04-13T04:21:50.264Z,0.51
2024-04-13T04:22:50.267Z,0.51
2024-04-13T04:23:50.277Z,0.51
2024-04-13T04:24:50.303Z,0.52
2024-04-13T04:25:50.308Z,0.51
2024-04-13T04:26:50.348Z,0.51
2024-04-13T04:27:50.371Z,0.52
2024-04-13T04:28:50.391Z,0.51
2024-04-13T04:29:50.508Z,0.52
2024-04-13T04:30:50.449Z,0.51
2024-04-13T04:31:50.448Z,0.50
2024-04-13T04:32:50.547Z,0.51
2024-04-13T04:33:50.542Z,0.51
2024-04-13T04:34:50.475Z,0.50
2024-04-13T04:35:50.512Z,0.51
2024-04-13T04:36:50.504Z,0.50
2024-04-13T04:37:50.523Z,0.51
2024-04-13T04:38:50.542Z,0.51
2024-04-13T04:39:50.560Z,0.51
2024-04-13T04:40:50.577Z,0.51
2024-04-13T04:41:50.601Z,0.51
2024-04-13T04:42:50.616Z,0.52
2024-04-13T04:43:50.631Z,0.52
2024-04-13T04:44:50.647Z,0.51
2024-04-13T04:45:57.847Z,0.50
2024-04-13T04:46:58.857Z,0.50
2024-04-13T04:47:59.014Z,0.50
2024-04-13T04:48:58.902Z,0.50
2024-04-13T04:49:58.870Z,0.50
2024-04-13T04:50:58.912Z,0.51
2024-04-13T04:51:58.860Z,0.51
2024-04-13T04:52:58.865Z,0.51
2024-04-13T04:53:58.851Z,0.52
2024-04-13T04:54:58.854Z,0.50
2024-04-13T04:55:58.867Z,0.51
2024-04-13T04:56:58.883Z,0.50
2024-04-13T04:57:58.862Z,0.50
2024-04-13T04:58:58.868Z,0.51
2024-04-13T04:59:58.871Z,0.51
2024-04-13T05:00:58.929Z,0.51
2024-04-13T05:02:00.147Z,0.51
2024-04-13T05:02:58.914Z,0.52
2024-04-13T05:03:59.020Z,0.50
2024-04-13T05:04:58.935Z,0.50
2024-04-13T05:05:58.943Z,0.51
2024-04-13T05:06:58.998Z,0.52
2024-04-13T05:07:59.992Z,0.52
2024-04-13T05:08:59.014Z,0.51
2024-04-13T05:09:59.031Z,0.51
2024-04-13T05:10:59.082Z,0.50
2024-04-13T05:11:59.053Z,0.52
2024-04-13T05:12:59.081Z,0.51
2024-04-13T05:13:59.082Z,0.51
2024-04-13T05:14:59.110Z,0.52
2024-04-13T05:15:59.118Z,0.51
2024-04-13T05:16:59.135Z,0.52
2024-04-13T05:17:59.226Z,0.51
2024-04-13T05:18:59.249Z,0.52
2024-04-13T05:19:59.180Z,0.52
2024-04-13T05:20:59.204Z,0.51
2024-04-13T05:21:59.242Z,0.51
2024-04-13T05:22:59.291Z,0.52
2024-04-13T05:23:59.306Z,0.51
2024-04-13T05:24:59.319Z,0.51
2024-04-13T05:25:59.334Z,0.51
2024-04-13T05:26:59.355Z,0.51
2024-04-13T05:27:59.390Z,0.51
2024-04-13T05:28:59.405Z,0.51
2024-04-13T05:29:59.404Z,0.51
2024-04-13T05:30:59.464Z,0.51
2024-04-13T05:31:59.442Z,0.51
2024-04-13T05:32:59.514Z,0.52
2024-04-13T05:33:59.564Z,0.52
2024-04-13T05:34:59.504Z,0.51
2024-04-13T05:36:02.363Z,0.51
2024-04-13T05:36:59.520Z,0.51
2024-04-13T05:37:59.532Z,0.52
2024-04-13T05:38:59.529Z,0.52
2024-04-13T05:39:59.529Z,0.52
2024-04-13T05:40:59.535Z,0.52
2024-04-13T05:41:59.522Z,0.52
2024-04-13T05:42:59.522Z,0.52
2024-04-13T05:43:59.533Z,0.52
2024-04-13T05:44:59.536Z,0.51
2024-04-13T05:45:59.526Z,0.51
2024-04-13T05:46:59.576Z,0.50
2024-04-13T05:47:59.592Z,0.51
2024-04-13T05:48:59.535Z,0.50
2024-04-13T05:49:59.547Z,0.51
2024-04-13T05:51:00.462Z,0.50
2024-04-13T05:51:59.554Z,0.52
2024-04-13T05:52:59.563Z,0.52
2024-04-13T05:53:59.545Z,0.53
2024-04-13T05:54:59.580Z,0.51
2024-04-13T05:55:59.543Z,0.52
2024-04-13T05:56:59.557Z,0.51
2024-04-13T05:57:59.547Z,0.51
2024-04-13T05:58:59.583Z,0.50
2024-04-13T05:59:59.571Z,0.50
2024-04-13T06:00:59.623Z,0.50
2024-04-13T06:01:59.574Z,0.51
2024-04-13T06:02:59.617Z,0.51
2024-04-13T06:03:59.593Z,0.51
2024-04-13T06:04:59.595Z,0.50
2024-04-13T06:05:59.610Z,0.51
2024-04-13T06:06:59.635Z,0.52
2024-04-13T06:07:59.652Z,0.52
2024-04-13T06:08:59.684Z,0.50
2024-04-13T06:09:59.691Z,0.51
2024-04-13T06:10:59.762Z,0.50
2024-04-13T06:11:59.732Z,0.50
2024-04-13T06:12:59.754Z,0.51
2024-04-13T06:13:59.772Z,0.51
2024-04-13T06:14:59.786Z,0.50
2024-04-13T06:15:59.812Z,0.50
2024-04-13T06:16:59.879Z,0.51
2024-04-13T06:17:59.890Z,0.51
2024-04-13T06:19:02.979Z,0.51
2024-04-13T06:19:59.874Z,0.51
2024-04-13T06:20:59.873Z,0.51
2024-04-13T06:21:59.875Z,0.51
2024-04-13T06:22:59.876Z,0.51
2024-04-13T06:23:59.876Z,0.50
2024-04-13T06:24:59.882Z,0.51
2024-04-13T06:25:59.877Z,0.52
2024-04-13T06:26:59.897Z,0.51
2024-04-13T06:27:59.880Z,0.51
2024-04-13T06:28:59.884Z,0.52
2024-04-13T06:29:59.887Z,0.50
2024-04-13T06:30:59.929Z,0.50
2024-04-13T06:31:59.890Z,0.50
2024-04-13T06:33:00.010Z,0.50
2024-04-13T06:34:00.130Z,0.50
2024-04-13T06:34:59.896Z,0.51
2024-04-13T06:35:59.909Z,0.51
2024-04-13T06:36:59.894Z,0.51
2024-04-13T06:37:59.923Z,0.52
2024-04-13T06:38:59.904Z,0.51
2024-04-13T06:39:59.912Z,0.51
2024-04-13T06:40:59.911Z,0.51
2024-04-13T06:42:00.458Z,0.51
2024-04-13T06:43:00.074Z,0.51
2024-04-13T06:43:59.908Z,0.50
2024-04-13T06:45:00.608Z,0.52
2024-04-13T06:46:00.646Z,0.51
2024-04-13T06:47:00.591Z,0.52
2024-04-13T06:48:00.645Z,0.52
2024-04-13T06:48:59.920Z,0.52
2024-04-13T06:49:59.919Z,0.51
2024-04-13T06:50:59.920Z,0.51
2024-04-13T06:51:59.933Z,0.52
2024-04-13T06:52:59.943Z,0.51
2024-04-13T06:53:59.936Z,0.51
2024-04-13T06:54:59.938Z,0.52
2024-04-13T06:55:59.955Z,0.51
2024-04-13T06:56:59.939Z,0.50
2024-04-13T06:57:59.943Z,0.50
2024-04-13T06:58:59.966Z,0.51
2024-04-13T06:59:59.943Z,0.51
2024-04-13T07:01:00.130Z,0.50
2024-04-13T07:01:59.949Z,0.52
2024-04-13T07:03:00.080Z,0.51
2024-04-13T07:04:00.061Z,0.52
2024-04-13T07:04:59.954Z,0.50
2024-04-13T07:05:59.955Z,0.51
2024-04-13T07:07:00.001Z,0.52
2024-04-13T07:07:59.959Z,0.50
2024-04-13T07:08:59.984Z,0.51
2024-04-13T07:10:00.002Z,0.53
2024-04-13T07:11:00.103Z,0.51
2024-04-13T07:12:00.047Z,0.51
2024-04-13T07:13:00.052Z,0.51
2024-04-13T07:14:00.063Z,0.51
2024-04-13T07:15:00.171Z,0.51
2024-04-13T07:16:00.213Z,0.51
2024-04-13T07:17:00.123Z,0.50
2024-04-13T07:18:00.183Z,0.52
2024-04-13T07:19:00.227Z,0.52
2024-04-13T07:20:00.193Z,0.52
2024-04-13T07:21:00.202Z,0.52
2024-04-13T07:22:00.228Z,0.51
2024-04-13T07:23:00.223Z,0.50
2024-04-13T07:24:00.247Z,0.51
2024-04-13T07:25:00.248Z,0.51
2024-04-13T07:26:00.277Z,0.50
2024-04-13T07:27:00.280Z,0.53
2024-04-13T07:28:00.313Z,0.51
2024-04-13T07:29:00.314Z,0.51
2024-04-13T07:30:00.326Z,0.51
2024-04-13T07:31:00.344Z,0.51
2024-04-13T07:32:00.345Z,0.51
2024-04-13T07:33:00.421Z,0.51
2024-04-13T07:34:00.409Z,0.51
2024-04-13T07:35:00.420Z,0.51
2024-04-13T07:36:00.443Z,0.51
2024-04-13T07:37:00.554Z,0.50
2024-04-13T07:38:00.493Z,0.50
2024-04-13T07:39:00.610Z,0.51
2024-04-13T07:40:00.616Z,0.51
2024-04-13T07:41:00.670Z,0.52
2024-04-13T07:42:00.686Z,0.52
2024-04-13T07:43:00.688Z,0.52
2024-04-13T07:44:00.737Z,0.52
2024-04-13T07:45:00.708Z,0.52
2024-04-13T07:46:00.722Z,0.53
2024-04-13T07:47:00.761Z,0.51
2024-04-13T07:48:00.984Z,0.51
2024-04-13T07:49:24.506Z,0.50
2024-04-13T07:50:25.494Z,0.50
2024-04-13T07:51:25.505Z,0.50
2024-04-13T07:52:25.501Z,0.50
2024-04-13T07:53:25.502Z,0.50
2024-04-13T07:54:25.574Z,0.51
2024-04-13T07:55:25.509Z,0.50
2024-04-13T07:56:25.510Z,0.52
2024-04-13T07:57:25.577Z,0.50
2024-04-13T07:58:25.534Z,0.50
2024-04-13T07:59:25.546Z,0.50
2024-04-13T08:00:25.571Z,0.50
2024-04-13T08:01:25.564Z,0.51
2024-04-13T08:02:25.555Z,0.50
2024-04-13T08:03:25.739Z,0.51
2024-04-13T08:04:25.628Z,0.51
2024-04-13T08:05:25.543Z,0.50
2024-04-13T08:06:25.545Z,0.50
2024-04-13T08:07:25.523Z,0.51
2024-04-13T08:08:25.521Z,0.52
2024-04-13T08:09:25.548Z,0.51
2024-04-13T08:10:25.526Z,0.51
2024-04-13T08:11:25.529Z,0.52
2024-04-13T08:12:25.552Z,0.52
2024-04-13T08:13:25.531Z,0.51
2024-04-13T08:14:25.531Z,0.51
2024-04-13T08:15:26.017Z,0.51
2024-04-13T08:16:25.588Z,0.51
2024-04-13T08:17:25.531Z,0.51
2024-04-13T08:18:25.591Z,0.52
2024-04-13T08:19:25.541Z,0.52
2024-04-13T08:20:25.562Z,0.53
2024-04-13T08:21:25.583Z,0.53
2024-04-13T08:22:25.549Z,0.53
2024-04-13T08:23:25.551Z,0.52
2024-04-13T08:24:25.621Z,0.52
2024-04-13T08:25:25.550Z,0.52
2024-04-13T08:26:25.555Z,0.51
2024-04-13T08:27:25.596Z,0.53
2024-04-13T08:28:25.563Z,0.51
2024-04-13T08:29:25.557Z,0.52
2024-04-13T08:30:25.646Z,0.52
2024-04-13T08:31:25.616Z,0.53
2024-04-13T08:32:25.561Z,0.53
2024-04-13T08:33:25.579Z,0.52
2024-04-13T08:34:25.583Z,0.52
2024-04-13T08:35:25.563Z,0.52
2024-04-13T08:36:25.574Z,0.52
2024-04-13T08:37:25.563Z,0.51
2024-04-13T08:38:25.589Z,0.52
2024-04-13T08:39:25.609Z,0.51
2024-04-13T08:40:25.589Z,0.52
2024-04-13T08:41:25.585Z,0.52
2024-04-13T08:42:25.601Z,0.52
2024-04-13T08:43:25.580Z,0.53
2024-04-13T08:44:26.240Z,0.51
2024-04-13T08:45:25.592Z,0.52
2024-04-13T08:46:25.587Z,0.52
2024-04-13T08:47:25.590Z,0.51
2024-04-13T08:48:25.685Z,0.53
2024-04-13T08:49:26.242Z,0.52
2024-04-13T08:50:25.630Z,0.52
2024-04-13T08:51:25.647Z,0.52
2024-04-13T08:52:25.595Z,0.52
2024-04-13T08:53:25.603Z,0.52
2024-04-13T08:54:25.650Z,0.52
2024-04-13T08:55:25.606Z,0.53
2024-04-13T08:56:25.609Z,0.54
2024-04-13T08:57:25.679Z,0.53
2024-04-13T08:58:25.624Z,0.53
2024-04-13T08:59:25.609Z,0.52
2024-04-13T09:00:25.639Z,0.54
2024-04-13T09:01:25.689Z,0.53
2024-04-13T09:02:25.725Z,0.53
2024-04-13T09:03:25.752Z,0.52
2024-04-13T09:04:25.690Z,0.52
2024-04-13T09:05:25.646Z,0.54
2024-04-13T09:06:25.726Z,0.51
2024-04-13T09:07:27.706Z,0.51
2024-04-13T09:08:25.625Z,0.54
2024-04-13T09:09:25.631Z,0.52
2024-04-13T09:10:25.732Z,0.52
2024-04-13T09:11:25.665Z,0.52
2024-04-13T09:12:25.638Z,0.52
2024-04-13T09:13:25.625Z,0.52
2024-04-13T09:14:25.616Z,0.51
2024-04-13T09:15:25.742Z,0.52
2024-04-13T09:16:25.629Z,0.50
2024-04-13T09:17:26.212Z,0.53
2024-04-13T09:18:25.841Z,0.52
2024-04-13T09:19:25.765Z,0.51
2024-04-13T09:20:25.630Z,0.51
2024-04-13T09:21:25.646Z,0.51
2024-04-13T09:22:25.655Z,0.50
2024-04-13T09:23:25.639Z,0.50
2024-04-13T09:24:25.660Z,0.52
2024-04-13T09:25:25.836Z,0.52
2024-04-13T09:26:25.646Z,0.52
2024-04-13T09:27:25.677Z,0.52
2024-04-13T09:28:25.638Z,0.52
2024-04-13T09:29:25.703Z,0.50
2024-04-13T09:30:25.679Z,0.50
2024-04-13T09:31:25.653Z,0.51
2024-04-13T09:32:25.793Z,0.50
2024-04-13T09:33:25.733Z,0.51
2024-04-13T09:34:25.651Z,0.51
2024-04-13T09:35:25.651Z,0.51
2024-04-13T09:36:25.793Z,0.51
2024-04-13T09:37:25.668Z,0.51
2024-04-13T09:38:25.667Z,0.51
2024-04-13T09:39:25.700Z,0.52
2024-04-13T09:40:25.650Z,0.51
2024-04-13T09:41:25.662Z,0.51
2024-04-13T09:42:25.733Z,0.51
2024-04-13T09:43:25.660Z,0.50
2024-04-13T09:44:25.663Z,0.52
2024-04-13T09:45:25.688Z,0.51
2024-04-13T09:46:26.476Z,0.51
2024-04-13T09:47:25.685Z,0.51
2024-04-13T09:48:25.834Z,0.50
2024-04-13T09:49:25.720Z,0.51
2024-04-13T09:50:25.671Z,0.50
2024-04-13T09:51:25.715Z,0.52
2024-04-13T09:52:25.690Z,0.51
2024-04-13T09:53:25.679Z,0.52
2024-04-13T09:54:25.768Z,0.51
2024-04-13T09:55:25.677Z,0.51
2024-04-13T09:56:25.685Z,0.53
2024-04-13T09:57:25.710Z,0.51
2024-04-13T09:58:25.697Z,0.52
2024-04-13T09:59:25.687Z,0.53
2024-04-13T10:00:25.757Z,0.52
2024-04-13T10:01:25.939Z,0.52
2024-04-13T10:02:25.783Z,0.51
2024-04-13T10:03:25.758Z,0.51
2024-04-13T10:04:26.135Z,0.53
2024-04-13T10:05:25.760Z,0.52
2024-04-13T10:06:25.856Z,0.53
2024-04-13T10:07:25.895Z,0.52
2024-04-13T10:08:25.903Z,0.51
2024-04-13T10:09:25.988Z,0.52
2024-04-13T10:10:25.999Z,0.52
2024-04-13T10:11:26.048Z,0.52
2024-04-13T10:12:26.111Z,0.52
2024-04-13T10:13:26.133Z,0.53
2024-04-13T10:14:26.194Z,0.53
2024-04-13T10:15:26.275Z,0.53
2024-04-13T10:16:26.276Z,0.53
2024-04-13T10:17:26.380Z,0.54
2024-04-13T10:18:27.331Z,0.53
2024-04-13T10:19:26.476Z,0.53
2024-04-13T10:20:26.510Z,0.54
2024-04-13T10:21:26.565Z,0.54
2024-04-13T10:22:32.467Z,0.54
2024-04-13T10:23:26.563Z,0.54
2024-04-13T10:24:26.580Z,0.54
2024-04-13T10:25:26.574Z,0.55
2024-04-13T10:26:26.578Z,0.55
2024-04-13T10:27:26.596Z,0.56
2024-04-13T10:28:26.584Z,0.57
2024-04-13T10:29:26.578Z,0.56
2024-04-13T10:30:26.609Z,0.55
2024-04-13T10:31:26.627Z,0.56
2024-04-13T10:32:26.603Z,0.56
2024-04-13T10:33:26.601Z,0.56
2024-04-13T10:34:26.582Z,0.56
2024-04-13T10:35:26.584Z,0.55
2024-04-13T10:36:26.609Z,0.55
2024-04-13T10:37:26.589Z,0.55
2024-04-13T10:38:26.608Z,0.56
2024-04-13T10:39:26.740Z,0.56
2024-04-13T10:40:26.586Z,0.56
2024-04-13T10:41:26.589Z,0.57
2024-04-13T10:42:26.620Z,0.57
2024-04-13T10:43:26.606Z,0.56
2024-04-13T10:44:26.607Z,0.58
2024-04-13T10:45:26.649Z,0.58
2024-04-13T10:46:26.603Z,0.56
2024-04-13T10:47:26.610Z,0.58
2024-04-13T10:48:26.720Z,0.59
2024-04-13T10:49:26.620Z,0.58
2024-04-13T10:50:26.605Z,0.59
2024-04-13T10:51:26.630Z,0.59
2024-04-13T10:52:26.608Z,0.58
2024-04-13T10:53:26.616Z,0.59
2024-04-13T10:54:26.673Z,0.59
2024-04-13T10:55:26.617Z,0.59
2024-04-13T10:56:26.603Z,0.58
2024-04-13T10:57:26.639Z,0.60
2024-04-13T10:58:26.644Z,0.59
2024-04-13T10:59:26.628Z,0.59
2024-04-13T11:00:26.690Z,0.58
2024-04-13T11:01:26.663Z,0.60
2024-04-13T11:02:26.642Z,0.61
2024-04-13T11:03:26.785Z,0.60
2024-04-13T11:04:26.617Z,0.60
2024-04-13T11:05:26.626Z,0.60
2024-04-13T11:06:26.652Z,0.60
2024-04-13T11:07:26.623Z,0.62
2024-04-13T11:08:26.664Z,0.62
2024-04-13T11:09:26.644Z,0.61
2024-04-13T11:10:26.629Z,0.62
2024-04-13T11:11:26.721Z,0.62
2024-04-13T11:12:26.666Z,0.63
2024-04-13T11:13:26.640Z,0.61
2024-04-13T11:14:26.657Z,0.62
2024-04-13T11:15:26.673Z,0.63
2024-04-13T11:16:26.647Z,0.62
2024-04-13T11:17:26.750Z,0.61
2024-04-13T11:18:26.831Z,0.61
2024-04-13T11:19:26.704Z,0.63
2024-04-13T11:20:26.646Z,0.61
2024-04-13T11:21:26.680Z,0.62
2024-04-13T11:22:26.656Z,0.61
2024-04-13T11:23:26.651Z,0.62
2024-04-13T11:24:26.674Z,0.64
2024-04-13T11:25:26.658Z,0.63
2024-04-13T11:26:26.663Z,0.63
2024-04-13T11:27:26.709Z,0.62
2024-04-13T11:28:26.659Z,0.63
2024-04-13T11:29:26.661Z,0.63
2024-04-13T11:30:26.765Z,0.64
2024-04-13T11:31:26.680Z,0.63
2024-04-13T11:32:26.685Z,0.64
2024-04-13T11:33:26.699Z,0.64
2024-04-13T11:34:26.668Z,0.63
2024-04-13T11:35:26.680Z,0.64
2024-04-13T11:36:26.705Z,0.63
2024-04-13T11:37:26.683Z,0.58
2024-04-13T11:38:26.720Z,0.56
2024-04-13T11:39:26.771Z,0.54
2024-04-13T11:40:26.839Z,0.50
2024-04-13T11:41:26.876Z,0.50
2024-04-13T11:42:34.967Z,0.50
2024-04-13T11:43:27.072Z,0.50
2024-04-13T11:44:26.972Z,0.51
2024-04-13T11:45:26.992Z,0.51
2024-04-13T11:46:26.984Z,0.51
2024-04-13T11:47:26.987Z,0.52
2024-04-13T11:48:27.149Z,0.55
2024-04-13T11:49:29.407Z,0.54
2024-04-13T11:50:26.954Z,0.54
2024-04-13T11:51:26.975Z,0.55
2024-04-13T11:52:29.442Z,0.54
2024-04-13T11:53:26.951Z,0.55
2024-04-13T11:54:26.970Z,0.55
2024-04-13T11:55:26.959Z,0.55
2024-04-13T11:56:26.959Z,0.55
2024-04-13T11:57:27.087Z,0.57
2024-04-13T11:58:26.973Z,0.56
2024-04-13T11:59:26.990Z,0.57
2024-04-13T12:00:27.017Z,0.57
2024-04-13T12:01:26.995Z,0.57
2024-04-13T12:02:27.024Z,0.59
2024-04-13T12:03:27.031Z,0.59
2024-04-13T12:04:26.968Z,0.59
2024-04-13T12:05:26.978Z,0.61
2024-04-13T12:06:27.066Z,0.59
2024-04-13T12:07:27.030Z,0.61
2024-04-13T12:08:27.068Z,0.60
2024-04-13T12:09:27.126Z,0.59
2024-04-13T12:10:27.169Z,0.59
2024-04-13T12:11:27.265Z,0.60
2024-04-13T12:12:27.302Z,0.60
2024-04-13T12:13:27.308Z,0.62
2024-04-13T12:14:36.080Z,0.64
2024-04-13T12:15:27.358Z,0.64
2024-04-13T12:16:27.344Z,0.65
2024-04-13T12:17:27.390Z,0.62
2024-04-13T12:18:27.520Z,0.61
2024-04-13T12:19:27.865Z,0.60
2024-04-13T12:20:27.359Z,0.63
2024-04-13T12:21:27.375Z,0.65
2024-04-13T12:22:27.358Z,0.67
2024-04-13T12:23:27.355Z,0.68
2024-04-13T12:24:27.371Z,0.67
2024-04-13T12:25:27.362Z,0.65
2024-04-13T12:26:27.361Z,0.62
2024-04-13T12:27:27.400Z,0.58
2024-04-13T12:28:27.371Z,0.55
2024-04-13T12:29:27.375Z,0.53
2024-04-13T12:30:27.374Z,0.53
2024-04-13T12:31:27.372Z,0.53
2024-04-13T12:32:27.469Z,0.58
2024-04-13T12:33:27.455Z,0.60
2024-04-13T12:34:27.403Z,0.63
2024-04-13T12:35:27.380Z,0.82
2024-04-13T12:36:27.414Z,0.85
2024-04-13T12:37:27.422Z,0.76
2024-04-13T12:38:27.380Z,0.77
2024-04-13T12:39:27.436Z,0.75
2024-04-13T12:40:27.380Z,0.75
2024-04-13T12:41:27.380Z,0.73
2024-04-13T12:42:27.418Z,0.68
2024-04-13T12:43:27.485Z,0.67
2024-04-13T12:44:27.380Z,0.68
2024-04-13T12:45:27.395Z,0.60
2024-04-13T12:46:27.391Z,0.55
2024-04-13T12:47:27.417Z,0.55
2024-04-13T12:48:27.486Z,0.57
2024-04-13T12:49:27.417Z,0.59
2024-04-13T12:50:27.413Z,0.60
2024-04-13T12:51:27.403Z,0.61
2024-04-13T12:52:27.410Z,0.59
2024-04-13T12:53:27.397Z,0.59
2024-04-13T12:54:27.413Z,0.57
2024-04-13T12:55:27.395Z,0.57
2024-04-13T12:56:27.394Z,0.58
2024-04-13T12:57:27.444Z,0.56
2024-04-13T12:58:27.406Z,0.54
2024-04-13T12:59:27.414Z,0.54
2024-04-13T13:00:27.455Z,0.55
2024-04-13T13:01:27.442Z,0.53
2024-04-13T13:02:27.518Z,0.54
2024-04-13T13:03:27.555Z,0.56
2024-04-13T13:04:27.542Z,0.56
2024-04-13T13:05:27.483Z,0.57
2024-04-13T13:06:27.583Z,0.58
2024-04-13T13:07:27.514Z,0.55
2024-04-13T13:08:27.560Z,0.57
2024-04-13T13:09:27.654Z,0.58
2024-04-13T13:10:27.589Z,0.54
2024-04-13T13:11:27.637Z,0.52
2024-04-13T13:12:27.617Z,0.51
2024-04-13T13:13:27.611Z,0.50
2024-04-13T13:14:28.272Z,0.50
2024-04-13T13:15:27.628Z,0.50
2024-04-13T13:16:27.713Z,0.51
2024-04-13T13:17:27.771Z,0.50
2024-04-13T13:18:27.823Z,0.50
2024-04-13T13:19:27.828Z,0.50
2024-04-13T13:20:27.856Z,0.50
2024-04-13T13:21:27.909Z,0.50
2024-04-13T13:22:27.979Z,0.50